Time;durP1;ratioP1;P1;durP2;ratioP2;P2;SDS_P1;SDS_P2;PMS_P1;PMS_P2;Temp;Humidity;BMP_temperature;BMP_pressure;BME280_temperature;BME280_humidity;BME280_pressure;Samples;Min_cycle;Max_cycle;Signal;HPM_P1;HPM_P2
2022/07/07 00:01:33;;;;;;;11.03;7.97;;;15.50;99.90;;;;;;5063381;28;20230;-80
2022/07/07 00:04:17;;;;;;;11.40;8.37;;;15.50;99.90;;;;;;5054747;28;20263;-80
2022/07/07 00:07:09;;;;;;;12.93;8.40;;;15.50;99.90;;;;;;5050747;28;20178;-79
2022/07/07 00:09:53;;;;;;;9.43;7.83;;;15.50;99.90;;;;;;5058484;28;20186;-80
2022/07/07 00:12:37;;;;;;;13.30;8.53;;;15.50;99.90;;;;;;5053350;28;20317;-80
2022/07/07 00:15:22;;;;;;;10.80;8.33;;;15.50;99.90;;;;;;5058500;28;20247;-80
2022/07/07 00:18:06;;;;;;;12.87;8.43;;;15.50;99.90;;;;;;5060644;28;21077;-79
2022/07/07 00:20:51;;;;;;;12.63;8.97;;;15.60;99.90;;;;;;5057142;28;20255;-80
2022/07/07 00:23:35;;;;;;;11.80;8.53;;;15.60;99.90;;;;;;5068786;28;20208;-80
2022/07/07 00:26:20;;;;;;;11.93;8.90;;;15.50;99.90;;;;;;5054359;28;20265;-80
2022/07/07 00:29:08;;;;;;;12.47;8.97;;;15.50;99.90;;;;;;5062662;28;20229;-80
2022/07/07 00:31:53;;;;;;;11.73;9.50;;;15.60;99.90;;;;;;5053130;28;20681;-80
2022/07/07 00:34:38;;;;;;;14.50;8.70;;;15.60;99.90;;;;;;5057962;28;20214;-80
2022/07/07 00:37:23;;;;;;;12.13;8.60;;;15.60;99.90;;;;;;5055983;28;20216;-80
2022/07/07 00:40:08;;;;;;;12.43;8.57;;;15.50;99.90;;;;;;5049654;28;20193;-79
2022/07/07 00:42:53;;;;;;;16.17;8.90;;;15.60;99.90;;;;;;5050259;28;20219;-80
2022/07/07 00:45:38;;;;;;;11.70;8.30;;;15.60;99.90;;;;;;5047702;28;20198;-79
2022/07/07 00:48:25;;;;;;;10.50;8.67;;;15.60;99.90;;;;;;5047859;28;20230;-79
2022/07/07 00:51:12;;;;;;;10.30;8.33;;;15.60;99.90;;;;;;5051250;28;20239;-78
2022/07/07 00:53:59;;;;;;;12.27;8.33;;;15.60;99.90;;;;;;5055735;28;20214;-80
2022/07/07 00:56:44;;;;;;;17.47;8.87;;;15.60;99.90;;;;;;5046526;28;20187;-79
2022/07/07 00:59:29;;;;;;;9.07;8.17;;;15.60;99.90;;;;;;5065864;28;20194;-79
2022/07/07 01:02:13;;;;;;;12.87;8.83;;;15.60;99.90;;;;;;5051582;28;20241;-80
2022/07/07 01:05:00;;;;;;;12.43;8.67;;;15.60;99.90;;;;;;5055214;28;20667;-79
2022/07/07 01:07:46;;;;;;;12.33;8.23;;;15.70;99.90;;;;;;5052250;28;20228;-80
2022/07/07 01:10:31;;;;;;;13.17;8.70;;;15.70;99.90;;;;;;5052437;28;20696;-80
2022/07/07 01:13:15;;;;;;;13.00;8.83;;;15.70;99.90;;;;;;5051073;28;20755;-80
2022/07/07 01:16:00;;;;;;;11.30;8.80;;;15.70;99.90;;;;;;5053512;28;20230;-79
2022/07/07 01:18:44;;;;;;;10.70;8.20;;;15.70;99.90;;;;;;5045814;28;20194;-79
2022/07/07 01:21:33;;;;;;;8.87;7.97;;;15.70;99.90;;;;;;5049949;28;20223;-78
2022/07/07 01:24:18;;;;;;;10.53;8.40;;;15.70;99.90;;;;;;5050828;28;20237;-78
2022/07/07 01:27:07;;;;;;;11.80;8.73;;;15.70;99.90;;;;;;5050352;28;20241;-79
2022/07/07 01:29:56;;;;;;;10.70;9.27;;;15.70;99.90;;;;;;5050180;28;20194;-81
2022/07/07 01:32:42;;;;;;;12.70;8.83;;;15.70;99.90;;;;;;5056600;28;20202;-81
2022/07/07 01:35:26;;;;;;;10.73;8.13;;;15.80;99.90;;;;;;5057655;28;20201;-80
2022/07/07 01:38:11;;;;;;;9.97;8.27;;;15.80;99.90;;;;;;5074960;28;20287;-80
2022/07/07 01:40:55;;;;;;;9.33;8.10;;;15.80;99.90;;;;;;5055586;28;20205;-79
2022/07/07 01:43:40;;;;;;;14.10;9.20;;;15.80;99.90;;;;;;5061776;28;20251;-78
2022/07/07 01:46:25;;;;;;;11.60;8.30;;;15.80;99.90;;;;;;5061232;28;20214;-79
2022/07/07 01:49:11;;;;;;;14.33;8.63;;;15.80;99.90;;;;;;5049867;28;20249;-79
2022/07/07 01:51:57;;;;;;;13.77;8.90;;;15.80;99.90;;;;;;5056535;28;20193;-79
2022/07/07 01:54:42;;;;;;;11.27;8.77;;;15.80;99.90;;;;;;5059985;28;20221;-80
2022/07/07 01:57:26;;;;;;;13.37;8.70;;;15.80;99.90;;;;;;5050730;28;20713;-80
2022/07/07 02:00:12;;;;;;;9.80;8.80;;;15.80;99.90;;;;;;5057174;28;20252;-79
2022/07/07 02:03:00;;;;;;;15.07;10.30;;;15.90;99.90;;;;;;5043725;28;20218;-79
2022/07/07 02:05:44;;;;;;;11.23;9.50;;;15.90;99.90;;;;;;5054880;28;20205;-79
2022/07/07 02:08:29;;;;;;;17.03;8.97;;;15.90;99.90;;;;;;5052061;28;20186;-80
2022/07/07 02:11:14;;;;;;;12.50;9.17;;;15.90;99.90;;;;;;5052559;28;20186;-78
2022/07/07 02:13:58;;;;;;;11.37;9.67;;;15.90;99.90;;;;;;5049108;28;20202;-79
2022/07/07 02:16:43;;;;;;;15.70;9.17;;;15.90;99.90;;;;;;5049460;28;20238;-79
2022/07/07 02:19:28;;;;;;;13.43;9.20;;;15.90;99.90;;;;;;5052622;28;20185;-79
2022/07/07 02:22:14;;;;;;;15.17;9.27;;;15.90;99.90;;;;;;5046934;28;20324;-78
2022/07/07 02:24:59;;;;;;;9.83;8.53;;;15.90;99.90;;;;;;5162088;22;20251;-78
2022/07/07 02:27:44;;;;;;;14.30;9.13;;;15.90;99.90;;;;;;5018348;28;20187;-79
2022/07/07 02:30:28;;;;;;;11.77;9.13;;;15.90;99.90;;;;;;5011808;28;20199;-80
2022/07/07 02:33:13;;;;;;;12.43;8.77;;;15.90;99.90;;;;;;5014909;28;20266;-78
2022/07/07 02:35:57;;;;;;;11.50;9.67;;;15.90;99.90;;;;;;5014650;28;20254;-78
2022/07/07 02:38:41;;;;;;;15.27;9.53;;;15.90;99.90;;;;;;5012087;28;20322;-77
2022/07/07 02:41:26;;;;;;;16.40;9.77;;;15.90;99.90;;;;;;5017682;28;20335;-77
2022/07/07 02:44:10;;;;;;;11.73;10.53;;;15.90;99.90;;;;;;5018378;28;20741;-79
2022/07/07 02:46:54;;;;;;;18.23;10.47;;;15.90;99.90;;;;;;5018438;28;20176;-78
2022/07/07 02:49:38;;;;;;;15.77;10.70;;;16.00;99.90;;;;;;5005720;28;20254;-78
2022/07/07 02:52:23;;;;;;;16.20;11.30;;;16.00;99.90;;;;;;5013189;28;20186;-80
2022/07/07 02:55:07;;;;;;;14.80;11.70;;;16.00;99.90;;;;;;5015942;28;20270;-78
2022/07/07 02:57:52;;;;;;;14.07;11.13;;;16.00;99.90;;;;;;5016804;28;20243;-77
2022/07/07 03:00:36;;;;;;;16.93;11.73;;;16.00;99.90;;;;;;5011754;28;20239;-78
2022/07/07 03:03:21;;;;;;;15.13;12.73;;;16.00;99.90;;;;;;5010096;28;20199;-77
2022/07/07 03:06:05;;;;;;;14.93;11.60;;;16.00;99.90;;;;;;5016893;28;20257;-78
2022/07/07 03:08:49;;;;;;;14.87;12.33;;;16.00;99.90;;;;;;5014896;28;20238;-77
2022/07/07 03:11:33;;;;;;;15.40;11.97;;;16.00;99.90;;;;;;5017397;28;20238;-76
2022/07/07 03:14:17;;;;;;;16.17;12.30;;;16.00;99.90;;;;;;5010869;28;20203;-78
2022/07/07 03:17:02;;;;;;;15.13;12.30;;;16.00;99.90;;;;;;5008695;28;20203;-79
2022/07/07 03:19:46;;;;;;;15.60;12.20;;;16.00;99.90;;;;;;5017210;28;20238;-79
2022/07/07 03:22:31;;;;;;;17.90;12.40;;;16.10;99.90;;;;;;5013429;28;20714;-79
2022/07/07 03:25:15;;;;;;;16.03;12.63;;;16.10;99.90;;;;;;5015966;28;20215;-78
2022/07/07 03:27:59;;;;;;;17.20;12.33;;;16.00;99.90;;;;;;5017186;28;20187;-78
2022/07/07 03:30:43;;;;;;;17.63;13.07;;;16.00;99.90;;;;;;5015309;28;20207;-77
2022/07/07 03:33:27;;;;;;;14.73;12.67;;;16.10;99.90;;;;;;5012350;28;20271;-78
2022/07/07 03:36:12;;;;;;;16.13;14.43;;;16.00;99.90;;;;;;5016149;28;20293;-78
2022/07/07 03:38:56;;;;;;;16.33;12.97;;;16.00;99.90;;;;;;5016397;28;20287;-78
2022/07/07 03:41:40;;;;;;;17.87;12.63;;;16.00;99.90;;;;;;5017597;28;20211;-79
2022/07/07 03:44:25;;;;;;;19.07;13.30;;;16.10;99.90;;;;;;5018716;28;20213;-78
2022/07/07 03:47:11;;;;;;;18.60;13.83;;;16.00;99.90;;;;;;5032510;28;20199;-79
2022/07/07 03:49:55;;;;;;;15.20;12.60;;;16.10;99.90;;;;;;5016979;28;20183;-78
2022/07/07 03:52:39;;;;;;;20.83;14.37;;;16.10;99.90;;;;;;5034637;28;20219;-77
2022/07/07 03:55:23;;;;;;;16.10;13.00;;;16.10;99.90;;;;;;5014141;28;20258;-77
2022/07/07 03:58:08;;;;;;;19.07;13.53;;;16.10;99.90;;;;;;5018680;28;20203;-78
2022/07/07 04:00:52;;;;;;;15.53;13.73;;;16.10;99.90;;;;;;5026822;28;20248;-77
2022/07/07 04:03:37;;;;;;;15.03;13.43;;;16.10;99.90;;;;;;5019692;28;20242;-77
2022/07/07 04:06:22;;;;;;;14.30;12.50;;;16.10;99.90;;;;;;5018550;28;20250;-80
2022/07/07 04:09:09;;;;;;;16.23;12.90;;;16.10;99.90;;;;;;5020585;28;20225;-78
2022/07/07 04:11:54;;;;;;;15.60;12.70;;;16.10;99.90;;;;;;5019306;28;20184;-78
2022/07/07 04:14:38;;;;;;;12.60;11.30;;;16.10;99.90;;;;;;5023612;28;20243;-80
2022/07/07 04:17:22;;;;;;;15.30;11.10;;;16.10;99.90;;;;;;5015694;28;20203;-77
2022/07/07 04:20:07;;;;;;;11.93;10.77;;;16.10;99.90;;;;;;5028508;28;20250;-79
2022/07/07 04:22:51;;;;;;;11.00;9.73;;;16.10;99.90;;;;;;5017703;28;20243;-77
2022/07/07 04:25:35;;;;;;;11.73;10.17;;;16.10;99.90;;;;;;5020379;28;20270;-78
2022/07/07 04:28:21;;;;;;;11.93;8.90;;;16.10;99.90;;;;;;5016795;28;20179;-79
2022/07/07 04:31:06;;;;;;;13.27;9.37;;;16.10;99.90;;;;;;5012631;28;20196;-78
2022/07/07 04:33:51;;;;;;;9.83;8.83;;;16.10;99.90;;;;;;5014604;28;20211;-79
2022/07/07 04:36:35;;;;;;;9.80;8.80;;;16.20;99.90;;;;;;5017768;28;20334;-78
2022/07/07 04:39:19;;;;;;;9.90;8.73;;;16.20;99.90;;;;;;5017077;28;20236;-80
2022/07/07 04:42:04;;;;;;;10.00;8.20;;;16.20;99.90;;;;;;5017296;28;20661;-80
2022/07/07 04:44:50;;;;;;;13.30;7.80;;;16.20;99.90;;;;;;5019192;28;20264;-80
2022/07/07 04:47:42;;;;;;;8.87;8.00;;;16.20;99.90;;;;;;5019638;28;20190;-79
2022/07/07 04:50:26;;;;;;;9.83;8.10;;;16.20;99.90;;;;;;5020691;28;20214;-78
2022/07/07 04:53:11;;;;;;;9.87;8.07;;;16.20;99.90;;;;;;5017839;28;20207;-78
2022/07/07 04:55:56;;;;;;;8.60;7.33;;;16.20;99.90;;;;;;5015989;28;20187;-79
2022/07/07 04:58:41;;;;;;;9.13;7.70;;;16.20;99.90;;;;;;5018399;28;20191;-79
2022/07/07 05:01:26;;;;;;;8.40;7.50;;;16.20;99.90;;;;;;5018096;28;20274;-79
2022/07/07 05:04:10;;;;;;;8.10;7.30;;;16.20;99.90;;;;;;5032168;28;20211;-78
2022/07/07 05:06:54;;;;;;;7.13;6.40;;;16.30;99.90;;;;;;5011763;28;20231;-82
2022/07/07 05:09:38;;;;;;;6.20;5.57;;;16.30;99.90;;;;;;5020310;28;20217;-78
2022/07/07 05:12:22;;;;;;;6.07;5.03;;;16.30;99.90;;;;;;5018192;28;20241;-79
2022/07/07 05:15:07;;;;;;;7.60;4.97;;;16.30;99.90;;;;;;5014946;28;20373;-79
2022/07/07 05:17:51;;;;;;;9.37;5.40;;;16.30;99.90;;;;;;5019136;28;20207;-77
2022/07/07 05:20:35;;;;;;;7.03;5.10;;;16.30;99.90;;;;;;5017194;28;20238;-78
2022/07/07 05:23:19;;;;;;;6.00;4.50;;;16.40;99.90;;;;;;5022983;28;20203;-80
2022/07/07 05:26:03;;;;;;;7.67;4.50;;;16.40;99.90;;;;;;5016893;28;20246;-79
2022/07/07 05:28:48;;;;;;;5.33;4.53;;;16.40;99.90;;;;;;5021457;28;20195;-79
2022/07/07 05:31:32;;;;;;;4.57;4.10;;;16.40;99.90;;;;;;5017673;28;20242;-80
2022/07/07 05:34:17;;;;;;;7.47;4.40;;;16.40;99.90;;;;;;5020720;28;20239;-80
2022/07/07 05:38:06;;;;;;;5.80;4.37;;;16.40;99.90;;;;;;5021034;28;20215;-77
2022/07/07 05:41:26;;;;;;;5.27;4.30;;;16.40;99.90;;;;;;4963965;28;20214;-80
2022/07/07 05:44:17;;;;;;;3.30;3.00;;;16.40;99.90;;;;;;4995980;28;20311;-79
2022/07/07 05:47:10;;;;;;;3.30;2.20;;;16.50;99.90;;;;;;5009007;28;20259;-78
2022/07/07 05:50:06;;;;;;;5.17;2.30;;;16.40;99.90;;;;;;5012692;28;20191;-77
2022/07/07 05:53:27;;;;;;;2.53;1.80;;;16.50;99.90;;;;;;5021175;28;20640;-78
2022/07/07 05:56:49;;;;;;;1.43;1.33;;;16.50;99.90;;;;;;5016783;28;20659;-79
2022/07/07 05:59:41;;;;;;;1.90;1.03;;;16.50;99.90;;;;;;5012152;28;20203;-79
2022/07/07 06:02:35;;;;;;;4.13;1.03;;;16.50;99.90;;;;;;5006038;28;20223;-77
2022/07/07 06:05:45;;;;;;;3.07;1.00;;;16.50;99.90;;;;;;5006863;28;20199;-78
2022/07/07 06:08:40;;;;;;;2.73;0.70;;;16.50;99.90;;;;;;5011064;28;20198;-79
2022/07/07 06:11:39;;;;;;;2.60;1.00;;;16.50;99.90;;;;;;5017528;28;20187;-78
2022/07/07 06:15:12;;;;;;;3.83;0.90;;;16.60;99.90;;;;;;5017504;28;20254;-79
2022/07/07 06:18:45;;;;;;;1.43;0.80;;;16.60;99.90;;;;;;5012256;28;20242;-77
2022/07/07 06:22:20;;;;;;;3.17;0.80;;;16.60;99.90;;;;;;5011918;28;20246;-79
2022/07/07 06:25:31;;;;;;;2.83;0.80;;;16.70;99.90;;;;;;5000829;28;20223;-78
2022/07/07 06:28:59;;;;;;;;;;;;;;;;;;;;;
2022/07/07 06:32:04;;;;;;;3.83;0.70;;;16.70;99.90;;;;;;5026023;28;20196;-78
2022/07/07 06:54:50;;;;;;;1.07;0.60;;;16.50;99.90;;;;;;5032662;28;20210;-77
2022/07/07 06:58:07;;;;;;;0.37;0.30;;;16.50;99.90;;;;;;5006319;28;20211;-79
2022/07/07 07:01:18;;;;;;;0.70;0.57;;;16.50;99.90;;;;;;5006911;28;20190;-80
2022/07/07 07:04:04;;;;;;;2.00;0.50;;;16.50;99.90;;;;;;5009925;28;20231;-78
2022/07/07 07:06:49;;;;;;;3.40;0.60;;;16.50;99.90;;;;;;5009796;28;20190;-78
2022/07/07 07:09:34;;;;;;;2.50;0.60;;;16.50;99.90;;;;;;5009720;28;20199;-78
2022/07/07 07:12:24;;;;;;;1.93;0.60;;;16.50;99.90;;;;;;5009404;28;20180;-80
2022/07/07 07:15:10;;;;;;;2.20;0.60;;;16.40;99.90;;;;;;5008034;28;20316;-79
2022/07/07 07:17:54;;;;;;;2.83;0.60;;;16.40;99.90;;;;;;5010463;28;20191;-77
2022/07/07 07:20:40;;;;;;;0.93;0.47;;;16.40;99.90;;;;;;5011273;28;20214;-78
2022/07/07 07:23:24;;;;;;;1.63;0.63;;;16.30;99.90;;;;;;5011712;28;20657;-76
2022/07/07 07:26:09;;;;;;;2.67;0.50;;;16.30;99.90;;;;;;5011081;28;20281;-76
2022/07/07 07:28:53;;;;;;;2.93;0.67;;;16.30;99.90;;;;;;5010615;28;20215;-76
2022/07/07 07:31:37;;;;;;;2.90;0.90;;;16.30;99.90;;;;;;5028697;28;20216;-77
2022/07/07 07:34:21;;;;;;;2.50;0.90;;;16.30;99.90;;;;;;5027895;28;20277;-76
2022/07/07 07:37:05;;;;;;;2.53;0.70;;;16.30;99.90;;;;;;5010818;28;20191;-77
2022/07/07 07:39:49;;;;;;;3.40;0.90;;;16.30;99.90;;;;;;5025554;28;20239;-77
2022/07/07 07:42:33;;;;;;;16.57;2.90;;;16.30;99.90;;;;;;5010211;28;20274;-77
2022/07/07 07:45:17;;;;;;;4.30;1.00;;;16.30;99.90;;;;;;5026132;28;20230;-77
2022/07/07 07:48:02;;;;;;;2.70;0.80;;;16.30;99.90;;;;;;5006170;28;20226;-77
2022/07/07 07:50:46;;;;;;;2.40;0.80;;;16.30;99.90;;;;;;5012252;28;20183;-77
2022/07/07 07:53:30;;;;;;;2.60;0.90;;;16.40;99.90;;;;;;5007930;28;20291;-76
2022/07/07 07:56:15;;;;;;;2.50;0.70;;;16.30;99.90;;;;;;5004493;28;20212;-77
2022/07/07 07:58:58;;;;;;;3.17;1.10;;;16.30;99.90;;;;;;5008103;28;20289;-76
2022/07/07 08:01:42;;;;;;;4.07;0.90;;;16.40;99.90;;;;;;5009218;28;20215;-76
2022/07/07 08:04:27;;;;;;;1.30;0.70;;;16.40;99.90;;;;;;5009874;28;20254;-76
2022/07/07 08:07:11;;;;;;;4.03;1.00;;;16.30;99.90;;;;;;5007333;28;20269;-76
2022/07/07 08:09:55;;;;;;;19.33;3.07;;;16.40;99.90;;;;;;5007680;28;20199;-76
2022/07/07 08:12:41;;;;;;;50.47;7.33;;;16.40;99.90;;;;;;5009568;28;20231;-77
2022/07/07 08:15:25;;;;;;;8.23;1.33;;;16.40;99.90;;;;;;5024104;28;20266;-76
2022/07/07 08:18:09;;;;;;;1.20;0.70;;;16.40;99.90;;;;;;5009524;28;20196;-76
2022/07/07 08:20:53;;;;;;;1.83;0.73;;;16.30;99.90;;;;;;5007753;28;20191;-77
2022/07/07 08:23:37;;;;;;;3.47;0.70;;;16.40;99.90;;;;;;5007935;28;20253;-76
2022/07/07 08:26:21;;;;;;;3.87;0.80;;;16.40;99.90;;;;;;5008528;28;20226;-76
2022/07/07 08:29:06;;;;;;;1.73;0.70;;;16.30;99.90;;;;;;5006229;28;20191;-76
2022/07/07 08:31:50;;;;;;;2.73;1.00;;;16.40;99.90;;;;;;5009472;28;20192;-74
2022/07/07 08:34:34;;;;;;;3.70;1.03;;;16.40;99.90;;;;;;5008847;28;20226;-76
2022/07/07 08:37:18;;;;;;;3.50;1.00;;;16.40;99.90;;;;;;5010424;28;20242;-76
2022/07/07 08:40:03;;;;;;;3.50;1.47;;;16.40;99.90;;;;;;5011287;28;20686;-76
2022/07/07 08:42:48;;;;;;;6.23;1.10;;;16.40;99.90;;;;;;5021165;28;20914;-76
2022/07/07 08:45:33;;;;;;;7.27;1.70;;;16.60;99.90;;;;;;5010511;28;20239;-76
2022/07/07 08:48:18;;;;;;;4.77;1.30;;;16.60;99.90;;;;;;5009674;28;20199;-76
2022/07/07 08:51:02;;;;;;;4.20;1.20;;;16.70;99.90;;;;;;5007841;28;20230;-75
2022/07/07 08:53:47;;;;;;;6.07;1.40;;;16.80;99.90;;;;;;5009596;28;20198;-76
2022/07/07 08:56:32;;;;;;;3.87;1.13;;;16.90;99.90;;;;;;5019924;28;20215;-75
2022/07/07 08:59:17;;;;;;;5.93;1.47;;;17.00;99.90;;;;;;5022088;28;20268;-77
2022/07/07 09:02:04;;;;;;;4.13;1.50;;;17.00;99.90;;;;;;5009557;28;20243;-76
2022/07/07 09:04:48;;;;;;;4.83;1.40;;;17.00;99.90;;;;;;5001890;28;20239;-76
2022/07/07 09:07:51;;;;;;;3.90;1.37;;;17.10;99.90;;;;;;5009222;28;20409;-77
2022/07/07 09:10:42;;;;;;;4.90;1.37;;;17.00;99.90;;;;;;5009402;28;20195;-76
2022/07/07 09:13:32;;;;;;;2.47;1.10;;;17.00;99.90;;;;;;5007938;28;20234;-76
2022/07/07 09:16:17;;;;;;;2.60;1.33;;;16.90;99.90;;;;;;5006556;28;20231;-78
2022/07/07 09:19:01;;;;;;;4.83;1.57;;;16.80;99.90;;;;;;5010085;28;20283;-73
2022/07/07 09:21:46;;;;;;;4.10;1.30;;;16.90;99.90;;;;;;5007544;28;20243;-74
2022/07/07 09:24:30;;;;;;;4.33;1.50;;;16.90;99.90;;;;;;5020982;28;20228;-74
2022/07/07 09:27:14;;;;;;;3.67;1.20;;;17.00;99.90;;;;;;5002624;28;20242;-74
2022/07/07 09:29:59;;;;;;;4.27;1.20;;;17.10;99.90;;;;;;5004941;28;20195;-74
2022/07/07 09:32:47;;;;;;;5.07;1.50;;;17.10;99.90;;;;;;5008693;28;20226;-75
2022/07/07 09:38:45;;;;;;;3.07;0.97;;;17.30;99.90;;;;;;4962791;28;20233;-75
2022/07/07 09:41:30;;;;;;;2.33;1.10;;;17.50;99.90;;;;;;5022528;28;20195;-74
2022/07/07 09:44:19;;;;;;;4.20;1.37;;;17.60;99.90;;;;;;5005706;28;20273;-75
2022/07/07 09:47:10;;;;;;;6.30;1.50;;;17.70;99.90;;;;;;5007631;28;20195;-74
2022/07/07 09:49:59;;;;;;;4.00;1.30;;;17.80;99.90;;;;;;5008299;28;20191;-75
2022/07/07 09:52:45;;;;;;;3.77;1.30;;;17.90;99.90;;;;;;5020648;28;20194;-75
2022/07/07 09:55:30;;;;;;;3.40;1.57;;;18.00;99.90;;;;;;5011168;28;20307;-75
2022/07/07 09:58:14;;;;;;;5.37;1.20;;;18.20;99.90;;;;;;5009454;28;20234;-76
2022/07/07 10:00:58;;;;;;;4.50;1.30;;;18.30;99.90;;;;;;5007225;28;20211;-74
2022/07/07 10:03:42;;;;;;;3.17;1.23;;;18.40;99.90;;;;;;5021149;28;20608;-74
2022/07/07 10:06:30;;;;;;;5.37;1.10;;;18.40;99.90;;;;;;5006984;28;20206;-74
2022/07/07 10:09:20;;;;;;;5.40;1.50;;;18.40;99.90;;;;;;5006532;28;20191;-75
2022/07/07 10:12:05;;;;;;;4.93;1.37;;;18.50;99.90;;;;;;5021976;28;20250;-74
2022/07/07 10:14:53;;;;;;;4.73;1.40;;;18.50;99.90;;;;;;5023386;28;20210;-73
2022/07/07 10:17:41;;;;;;;4.05;1.25;;;18.60;99.90;;;;;;5008166;28;20199;-75
2022/07/07 10:20:25;;;;;;;6.53;1.30;;;18.70;99.90;;;;;;5004466;28;20337;-74
2022/07/07 10:23:09;;;;;;;2.53;1.30;;;18.80;99.90;;;;;;5006634;28;20223;-74
2022/07/07 10:26:01;;;;;;;3.03;1.20;;;18.90;99.90;;;;;;5007821;28;20223;-74
2022/07/07 10:28:54;;;;;;;9.80;1.80;;;18.90;99.90;;;;;;5006260;28;20338;-74
2022/07/07 10:31:39;;;;;;;6.30;1.70;;;18.90;99.90;;;;;;5007362;28;20211;-74
2022/07/07 10:34:28;;;;;;;2.33;1.00;;;18.80;99.90;;;;;;5004533;28;20288;-74
2022/07/07 10:37:12;;;;;;;5.50;1.30;;;18.80;99.90;;;;;;5021146;28;20179;-74
2022/07/07 10:39:56;;;;;;;2.63;1.00;;;18.80;99.90;;;;;;5006836;28;20190;-75
2022/07/07 10:43:14;;;;;;;4.38;1.10;;;18.70;99.90;;;;;;5007005;28;20249;-74
2022/07/07 10:46:01;;;;;;;2.05;1.00;;;18.70;99.90;;;;;;5004261;28;20564;-74
2022/07/07 10:48:47;;;;;;;2.83;0.80;;;18.60;99.90;;;;;;5006414;28;20282;-75
2022/07/07 10:51:31;;;;;;;2.15;0.77;;;18.70;99.90;;;;;;5005707;28;20198;-74
2022/07/07 10:54:16;;;;;;;5.55;1.02;;;18.80;99.90;;;;;;5002930;28;20230;-74
2022/07/07 10:57:00;;;;;;;1.25;0.90;;;18.90;99.90;;;;;;5008381;28;20307;-73
2022/07/07 11:00:01;;;;;;;1.45;0.90;;;18.90;99.90;;;;;;5019129;28;20191;-75
2022/07/07 11:02:51;;;;;;;3.30;0.67;;;18.90;99.90;;;;;;5023346;28;20342;-74
2022/07/07 11:05:36;;;;;;;5.87;1.00;;;18.90;99.90;;;;;;5007181;28;20247;-75
2022/07/07 11:08:20;;;;;;;4.25;1.10;;;18.90;99.90;;;;;;5005688;28;20231;-73
2022/07/07 11:11:05;;;;;;;0.77;0.60;;;18.90;99.90;;;;;;5008478;28;20199;-73
2022/07/07 11:14:02;;;;;;;3.22;0.82;;;18.90;99.90;;;;;;5019906;28;20191;-75
2022/07/07 11:16:57;;;;;;;4.35;0.77;;;18.90;99.90;;;;;;5020097;28;20203;-73
2022/07/07 11:19:42;;;;;;;3.65;0.70;;;19.00;99.90;;;;;;5023926;28;20194;-73
2022/07/07 11:22:41;;;;;;;1.27;0.65;;;19.10;99.90;;;;;;5008705;28;20230;-73
2022/07/07 11:25:26;;;;;;;2.80;1.00;;;19.10;99.90;;;;;;5003052;28;20226;-72
2022/07/07 11:28:11;;;;;;;3.60;0.80;;;19.10;99.90;;;;;;5023256;28;20256;-75
2022/07/07 11:31:05;;;;;;;1.30;0.88;;;19.10;99.90;;;;;;5020362;28;20184;-75
2022/07/07 11:33:54;;;;;;;0.75;0.60;;;19.20;99.90;;;;;;5006211;28;20223;-75
2022/07/07 11:36:38;;;;;;;2.72;0.57;;;19.10;99.90;;;;;;5009654;28;20194;-74
2022/07/07 11:39:23;;;;;;;2.10;0.70;;;19.10;99.90;;;;;;5006481;28;20267;-74
2022/07/07 11:42:08;;;;;;;2.72;0.55;;;19.10;99.90;;;;;;5006345;28;20211;-74
2022/07/07 11:44:55;;;;;;;3.25;1.02;;;19.00;99.90;;;;;;5009913;28;20271;-74
2022/07/07 11:47:39;;;;;;;4.88;0.88;;;18.90;99.90;;;;;;5005691;28;20203;-75
2022/07/07 11:50:24;;;;;;;2.72;1.00;;;18.80;99.90;;;;;;5019648;28;20195;-74
2022/07/07 11:53:10;;;;;;;3.33;0.95;;;18.80;99.90;;;;;;5006520;28;20199;-74
2022/07/07 11:55:54;;;;;;;1.48;1.00;;;18.70;99.90;;;;;;5007626;28;20227;-75
2022/07/07 11:58:54;;;;;;;2.47;0.82;;;18.60;99.90;;;;;;5006284;28;20674;-75
2022/07/07 12:01:40;;;;;;;1.20;1.10;;;18.50;99.90;;;;;;5007683;28;20195;-75
2022/07/07 12:04:24;;;;;;;2.00;1.13;;;18.30;99.90;;;;;;5012211;28;20261;-75
2022/07/07 12:07:10;;;;;;;2.80;0.90;;;18.20;99.90;;;;;;5010327;28;20210;-75
2022/07/07 12:09:54;;;;;;;1.43;0.90;;;18.20;99.90;;;;;;5021571;28;20226;-75
2022/07/07 12:12:52;;;;;;;2.80;1.30;;;18.10;99.90;;;;;;5024066;28;20186;-75
2022/07/07 12:15:45;;;;;;;1.30;0.90;;;18.10;99.90;;;;;;5008339;28;20394;-75
2022/07/07 12:18:37;;;;;;;3.57;1.30;;;18.00;99.90;;;;;;5010215;28;20615;-75
2022/07/07 12:21:25;;;;;;;2.17;1.17;;;18.00;99.90;;;;;;5009754;28;20770;-75
2022/07/07 12:24:36;;;;;;;2.67;1.60;;;18.00;99.90;;;;;;5007482;28;20261;-76
2022/07/07 12:27:21;;;;;;;3.17;1.37;;;17.70;99.90;;;;;;5003212;28;20258;-75
2022/07/07 12:30:06;;;;;;;4.87;1.70;;;17.60;99.90;;;;;;5009176;28;20199;-75
2022/07/07 12:32:50;;;;;;;3.90;1.50;;;17.30;99.90;;;;;;5021638;28;20194;-75
2022/07/07 12:35:37;;;;;;;5.30;1.60;;;17.20;99.90;;;;;;5021321;28;20223;-75
2022/07/07 12:38:35;;;;;;;8.33;1.93;;;17.00;99.90;;;;;;5007999;28;20188;-75
2022/07/07 12:41:28;;;;;;;7.93;1.93;;;17.00;99.90;;;;;;5004410;28;20208;-75
2022/07/07 12:44:17;;;;;;;4.83;1.83;;;17.00;99.90;;;;;;5007576;28;20218;-75
2022/07/07 12:47:02;;;;;;;6.20;1.70;;;17.00;99.90;;;;;;5010605;28;20195;-75
2022/07/07 12:49:55;;;;;;;4.13;1.63;;;17.10;99.90;;;;;;5003707;28;20183;-75
2022/07/07 12:52:39;;;;;;;7.10;1.87;;;17.10;99.90;;;;;;5010070;28;20655;-75
2022/07/07 12:55:38;;;;;;;9.50;2.03;;;17.00;99.90;;;;;;5007639;28;20223;-75
2022/07/07 12:58:22;;;;;;;7.40;2.10;;;17.00;99.90;;;;;;5021169;28;20191;-75
2022/07/07 13:01:06;;;;;;;8.07;2.13;;;17.00;99.90;;;;;;5007832;28;20186;-75
2022/07/07 13:03:53;;;;;;;6.97;2.30;;;17.00;99.90;;;;;;5004997;28;20266;-75
2022/07/07 13:06:37;;;;;;;12.17;2.13;;;17.00;99.90;;;;;;5026328;28;20195;-75
2022/07/07 13:09:22;;;;;;;6.67;2.17;;;16.90;99.90;;;;;;5007939;28;20235;-75
2022/07/07 13:12:11;;;;;;;9.27;2.17;;;16.80;99.90;;;;;;5008257;28;20286;-75
2022/07/07 13:14:56;;;;;;;9.10;2.33;;;16.70;99.90;;;;;;5007193;28;20223;-75
2022/07/07 13:17:42;;;;;;;11.80;2.57;;;16.80;99.90;;;;;;5008671;28;20559;-75
2022/07/07 13:20:26;;;;;;;10.60;2.17;;;16.70;99.90;;;;;;5023349;28;20179;-74
2022/07/07 13:23:11;;;;;;;10.07;1.90;;;16.80;99.90;;;;;;5007608;28;20736;-74
2022/07/07 13:25:57;;;;;;;11.50;2.17;;;16.90;99.90;;;;;;5006374;28;20230;-75
2022/07/07 13:28:41;;;;;;;8.53;2.13;;;17.10;99.90;;;;;;5009293;28;20291;-75
2022/07/07 13:31:25;;;;;;;6.97;1.87;;;17.30;99.90;;;;;;5020732;28;20201;-74
2022/07/07 13:34:10;;;;;;;9.23;2.00;;;17.40;99.90;;;;;;5008562;28;20246;-76
2022/07/07 13:36:54;;;;;;;6.53;1.50;;;17.50;99.90;;;;;;5008466;28;20230;-74
2022/07/07 13:39:39;;;;;;;11.47;2.00;;;17.60;99.90;;;;;;5021051;28;20187;-75
2022/07/07 13:42:22;;;;;;;9.03;2.00;;;17.60;99.90;;;;;;5007687;28;20303;-74
2022/07/07 13:45:07;;;;;;;12.23;2.00;;;17.50;99.90;;;;;;5008726;28;20316;-75
2022/07/07 13:47:52;;;;;;;17.47;2.70;;;17.30;99.90;;;;;;5009206;28;20184;-74
2022/07/07 13:50:36;;;;;;;9.40;2.20;;;17.20;99.90;;;;;;5007964;28;20697;-75
2022/07/07 13:53:20;;;;;;;11.57;2.40;;;17.10;99.90;;;;;;5007431;28;20271;-75
2022/07/07 13:56:04;;;;;;;16.27;2.53;;;17.00;99.90;;;;;;5009874;28;20585;-75
2022/07/07 13:58:48;;;;;;;13.97;3.13;;;17.00;99.90;;;;;;5022172;28;20705;-73
2022/07/07 14:01:32;;;;;;;12.33;2.57;;;17.00;99.90;;;;;;5008070;28;20199;-72
2022/07/07 14:04:16;;;;;;;13.40;2.67;;;17.10;99.90;;;;;;5025632;28;20215;-72
2022/07/07 14:07:01;;;;;;;11.40;1.97;;;17.10;99.90;;;;;;5021894;28;20191;-72
2022/07/07 14:09:45;;;;;;;10.83;2.30;;;17.20;99.90;;;;;;5007594;28;20187;-73
2022/07/07 14:12:29;;;;;;;14.90;2.60;;;17.30;99.90;;;;;;5010872;28;20199;-72
2022/07/07 14:15:14;;;;;;;11.40;2.27;;;17.40;99.90;;;;;;5020791;28;20214;-73
2022/07/07 14:17:58;;;;;;;6.33;1.43;;;17.50;99.90;;;;;;5009670;28;20279;-73
2022/07/07 14:20:42;;;;;;;13.20;1.80;;;17.60;99.90;;;;;;5022201;28;20194;-73
2022/07/07 14:23:29;;;;;;;11.03;2.33;;;17.70;99.90;;;;;;5007520;28;20211;-73
2022/07/07 14:26:13;;;;;;;7.83;1.50;;;17.70;99.90;;;;;;5021563;28;20207;-73
2022/07/07 14:28:58;;;;;;;16.60;2.13;;;17.70;99.90;;;;;;5008373;28;20211;-75
2022/07/07 14:31:42;;;;;;;12.57;2.20;;;17.80;99.90;;;;;;5022815;28;20203;-73
2022/07/07 14:34:26;;;;;;;11.97;3.40;;;17.70;99.90;;;;;;5024195;28;20230;-73
2022/07/07 14:37:10;;;;;;;8.30;1.57;;;17.80;99.90;;;;;;5006761;28;20188;-74
2022/07/07 14:40:03;;;;;;;9.17;1.57;;;17.80;99.90;;;;;;5008461;28;20678;-73
2022/07/07 14:42:47;;;;;;;9.57;1.80;;;17.80;99.90;;;;;;5007032;28;20307;-73
2022/07/07 14:45:31;;;;;;;5.70;1.73;;;17.80;99.90;;;;;;5024241;28;20285;-72
2022/07/07 14:48:16;;;;;;;6.83;2.00;;;17.80;99.90;;;;;;5023415;28;20187;-73
2022/07/07 14:51:00;;;;;;;9.13;1.90;;;17.70;99.90;;;;;;5009042;28;20269;-72